METAR AND TAF INFORMATION
METAR FOR KPAE
ADDS - METARS form results

(0557 UTC 25 November 2020)
Data provider http://aviationweather.gov/metar/data/
 
METAR text: KPAE 250553Z AUTO 10006KT 10SM FEW001 BKN031 04/04 A2991 RMK AO2 SLP132 60020 T00440039 10061 20044 53009
Conditions at: KPAE (EVERETT , WA, US) observed 0553 UTC 25 November 2020
Temperature: 4.4°C (40°F)
Dewpoint: 3.9°C (39°F) [RH = 97%]
Pressure (altimeter): 29.91 inches Hg (1013.0 mb)
[Sea-level pressure: 1013.2 mb]
Winds: from the E (100 degrees) at 7 MPH (6 knots; 3.1 m/s)
Visibility: 10 or more miles (16+ km)
Ceiling: 3100 feet AGL
Clouds: few clouds at 100 feet AGL
broken clouds at 3100 feet AGL
Weather: automated observation with no human augmentation;
there may or may not be significant weather present at this time

METAR text: KPAE 250542Z AUTO 10006KT 7SM FEW001 BKN031 BKN035 04/04 A2991 RMK AO2 T00440039
Conditions at: KPAE (EVERETT , WA, US) observed 0542 UTC 25 November 2020
Temperature: 4.4°C (40°F)
Dewpoint: 3.9°C (39°F) [RH = 97%]
Pressure (altimeter): 29.91 inches Hg (1013.0 mb)
Winds: from the E (100 degrees) at 7 MPH (6 knots; 3.1 m/s)
Visibility: 7 miles (11 km)
Ceiling: 3100 feet AGL
Clouds: few clouds at 100 feet AGL
broken clouds at 3100 feet AGL
broken clouds at 3500 feet AGL
Weather: automated observation with no human augmentation;
there may or may not be significant weather present at this time

METAR text: KPAE 250525Z AUTO 10004KT 10SM FEW003 BKN029 OVC033 05/04 A2990 RMK AO2 T00500044
Conditions at: KPAE (EVERETT , WA, US) observed 0525 UTC 25 November 2020
Temperature: 5.0°C (41°F)
Dewpoint: 4.4°C (40°F) [RH = 96%]
Pressure (altimeter): 29.90 inches Hg (1012.6 mb)
Winds: from the E (100 degrees) at 5 MPH (4 knots; 2.1 m/s)
Visibility: 10 or more miles (16+ km)
Ceiling: 2900 feet AGL
Clouds: few clouds at 300 feet AGL
broken clouds at 2900 feet AGL
overcast cloud deck at 3300 feet AGL
Weather: automated observation with no human augmentation;
there may or may not be significant weather present at this time

METAR text: KPAE 250516Z AUTO 10004KT 10SM FEW005 BKN031 OVC050 06/04 A2990 RMK AO2 T00560044
Conditions at: KPAE (EVERETT , WA, US) observed 0516 UTC 25 November 2020
Temperature: 5.6°C (42°F)
Dewpoint: 4.4°C (40°F) [RH = 92%]
Pressure (altimeter): 29.90 inches Hg (1012.6 mb)
Winds: from the E (100 degrees) at 5 MPH (4 knots; 2.1 m/s)
Visibility: 10 or more miles (16+ km)
Ceiling: 3100 feet AGL
Clouds: few clouds at 500 feet AGL
broken clouds at 3100 feet AGL
overcast cloud deck at 5000 feet AGL
Weather: automated observation with no human augmentation;
there may or may not be significant weather present at this time

METAR text: KPAE 250503Z AUTO 11006KT 10SM BKN027 OVC048 06/04 A2990 RMK AO2 T00560044
Conditions at: KPAE (EVERETT , WA, US) observed 0503 UTC 25 November 2020
Temperature: 5.6°C (42°F)
Dewpoint: 4.4°C (40°F) [RH = 92%]
Pressure (altimeter): 29.90 inches Hg (1012.6 mb)
Winds: from the ESE (110 degrees) at 7 MPH (6 knots; 3.1 m/s)
Visibility: 10 or more miles (16+ km)
Ceiling: 2700 feet AGL
Clouds: broken clouds at 2700 feet AGL
overcast cloud deck at 4800 feet AGL
Weather: automated observation with no human augmentation;
there may or may not be significant weather present at this time

Forecast for: KPAE (EVERETT , WA, US)
Text: KPAE 250520Z 2506/2606 30008KT P6SM -SHRA BKN015 OVC030
Forecast period: 0600 to 1200 UTC 25 November 2020
Forecast type: FROM: standard forecast or significant change
Winds: from the WNW (300 degrees) at 9 MPH (8 knots; 4.1 m/s)
Visibility: 6 or more miles (10+ km)
Ceiling: 1500 feet AGL
Clouds: broken clouds at 1500 feet AGL
overcast cloud deck at 3000 feet AGL
Weather: -SHRA  (light rain showers)
Text: FM251200 18008KT P6SM OVC015
Forecast period: 1200 to 2000 UTC 25 November 2020
Forecast type: FROM: standard forecast or significant change
Winds: from the S (180 degrees) at 9 MPH (8 knots; 4.1 m/s)
Visibility: 6 or more miles (10+ km)
Ceiling: 1500 feet AGL
Clouds: overcast cloud deck at 1500 feet AGL
Weather: no significant weather forecast for this period
Text: FM252000 16006KT P6SM BKN025
Forecast period: 2000 UTC 25 November 2020 to 0600 UTC 26 November 2020
Forecast type: FROM: standard forecast or significant change
Winds: from the SSE (160 degrees) at 7 MPH (6 knots; 3.1 m/s)
Visibility: 6 or more miles (10+ km)
Ceiling: 2500 feet AGL
Clouds: broken clouds at 2500 feet AGL
Weather: no significant weather forecast for this period

 AIRPORT MAP

 RUNWAY INFORMATION

 AIRPORT FREQUENCIES
Type ATIS Name ATIS Frequency 128.65 MHZ
Type CLD Name CLNC DEL Frequency 126.75 MHZ
Type CNTR Name SEATTLE CN Frequency 128.5 MHZ
Type CTAF Name CTAF Frequency 132.95 MHZ
Type GND Name GND Frequency 121.8 MHZ
Type OPS Name AR OPS Frequency 34.1 MHZ
Type RDO Name SEATTLE RD Frequency 132.96 MHZ
Type TWR Name ACFT ARR E Frequency 120.2 MHZ
Type TWR Name ACFT ARR W Frequency 132.95 MHZ
Type UNIC Name UNICOM Frequency 122.95 MHZ

 AIRPORT NEAR NAVIGATION AIDS
Type NDB Name Ritts Frequency 396 KHZ
Type VOR-DME Name Paine Frequency 110600 KHZ



2018 Air Astana Virtual Airline